Hyundai Forward — 3EJY9 — position and weather

sailwx.info

Track history (hours):
 
Tides and Currents Weather Stations Pressure Air Temp Water Temp Dewpoint Dewpoint Depression Visibility Wind Speed Wind Dir Waves Ship Positions

Hyundai Forward

Last reported at 2016-Aug-17 20:07 UTC. Time now 2016-Aug-25 14:58 UTC.
Position N 22°20' E 120°10'.

Length 295 m; draft 9.4 m.

Type: Cargo ship. MMSI: 372652000.

Date/timePositionNaut miles runAvg speedWind from/ knotsBaromVisibWave heightAir tempDewpointWater temp
2016-Aug-17 20:07N 22°20' E 120°10'814.2
2016-Aug-17 19:34N 22°27' E 120°12'9 8.7
2016-Aug-17 18:33N 22°34' E 120°19'0 0.3
2016-Aug-17 17:14N 22°34' E 120°19'0 0.0
2016-Aug-17 16:32N 22°34' E 120°19'0 0.0
2016-Aug-17 15:26N 22°34' E 120°19'0 0.0
2016-Aug-17 14:32N 22°34' E 120°19'1 0.2
2016-Aug-17 10:33N 22°33' E 120°19'6 5.9
2016-Aug-17 09:33N 22°32' E 120°13'1111.4
2016-Aug-17 08:33N 22°41' E 120°06'1414.0
2016-Aug-17 07:33N 22°53' E 119°58'  
2016-Aug-15 00:33N 31°18' E 121°47'10 9.9
2016-Aug-14 23:33N 31°22' E 121°36'0 0.3
2016-Aug-14 22:29N 31°22' E 121°36'0 0.0
2016-Aug-14 21:33N 31°22' E 121°36'0 0.0
2016-Aug-14 20:33N 31°22' E 121°36'0 0.0
2016-Aug-14 19:32N 31°22' E 121°36'0 0.0
2016-Aug-14 18:31N 31°22' E 121°36'0 0.0
2016-Aug-14 17:30N 31°22' E 121°36'0 0.0
2016-Aug-14 16:31N 31°22' E 121°36'0 0.0
2016-Aug-14 15:32N 31°22' E 121°36'0 0.0
2016-Aug-14 14:29N 31°22' E 121°36'0 0.4
2016-Aug-14 13:33N 31°22' E 121°36'8 7.7
2016-Aug-14 12:33N 31°19' E 121°44'  
2016-Aug-08 21:14N 36°23' E 122°26'811.8
2016-Aug-08 20:32N 36°29' E 122°34'1212.5
2016-Aug-08 19:34N 36°38' E 122°43'1312.9
2016-Aug-08 18:34N 36°48' E 122°54'1212.1
2016-Aug-08 17:33N 36°59' E 122°58'1312.5
2016-Aug-08 16:33N 37°12' E 122°58'1212.2
2016-Aug-08 15:33N 37°24' E 122°58'1411.3
2016-Aug-08 14:20N 37°37' E 122°53'911.5
2016-Aug-08 13:33N 37°42' E 122°43'1211.8
2016-Aug-08 12:31N 37°49' E 122°30'2512.8
2016-Aug-08 10:33N 38°01' E 122°02'1515.4
2016-Aug-08 09:33N 38°08' E 121°45'1514.5
2016-Aug-08 08:33N 38°16' E 121°30'1414.2
2016-Aug-08 07:33N 38°23' E 121°15'1313.4
2016-Aug-08 06:33N 38°30' E 120°60'1413.7
2016-Aug-08 05:33N 38°34' E 120°43'1514.2
2016-Aug-08 04:30N 38°36' E 120°24'11414.1
2016-Aug-07 20:26N 38°56' E 118°00'  
Track history (hours):
 
Tides and Currents Weather Stations Pressure Air Temp Water Temp Dewpoint Dewpoint Depression Visibility Wind Speed Wind Dir Waves Ship Positions

Hyundai Forward

Last reported at 2016-Aug-17 20:07 UTC. Time now 2016-Aug-25 14:58 UTC.
Position N 22°20' E 120°10'.

Length 295 m; draft 9.4 m.

Type: Cargo ship. MMSI: 372652000.

Date/timePositionNaut miles runAvg speedWind from/ knotsBaromVisibWave heightAir tempDewpointWater temp
2016-Aug-17 20:07N 22°20' E 120°10'814.2
2016-Aug-17 19:34N 22°27' E 120°12'9 8.7
2016-Aug-17 18:33N 22°34' E 120°19'0 0.3
2016-Aug-17 17:14N 22°34' E 120°19'0 0.0
2016-Aug-17 16:32N 22°34' E 120°19'0 0.0
2016-Aug-17 15:26N 22°34' E 120°19'0 0.0
2016-Aug-17 14:32N 22°34' E 120°19'1 0.2
2016-Aug-17 10:33N 22°33' E 120°19'6 5.9
2016-Aug-17 09:33N 22°32' E 120°13'1111.4
2016-Aug-17 08:33N 22°41' E 120°06'1414.0
2016-Aug-17 07:33N 22°53' E 119°58'  
2016-Aug-15 00:33N 31°18' E 121°47'10 9.9
2016-Aug-14 23:33N 31°22' E 121°36'0 0.3
2016-Aug-14 22:29N 31°22' E 121°36'0 0.0
2016-Aug-14 21:33N 31°22' E 121°36'0 0.0
2016-Aug-14 20:33N 31°22' E 121°36'0 0.0
2016-Aug-14 19:32N 31°22' E 121°36'0 0.0
2016-Aug-14 18:31N 31°22' E 121°36'0 0.0
2016-Aug-14 17:30N 31°22' E 121°36'0 0.0
2016-Aug-14 16:31N 31°22' E 121°36'0 0.0
2016-Aug-14 15:32N 31°22' E 121°36'0 0.0
2016-Aug-14 14:29N 31°22' E 121°36'0 0.4
2016-Aug-14 13:33N 31°22' E 121°36'8 7.7
2016-Aug-14 12:33N 31°19' E 121°44'  
2016-Aug-08 21:14N 36°23' E 122°26'811.8
2016-Aug-08 20:32N 36°29' E 122°34'1212.5
2016-Aug-08 19:34N 36°38' E 122°43'1312.9
2016-Aug-08 18:34N 36°48' E 122°54'1212.1
2016-Aug-08 17:33N 36°59' E 122°58'1312.5
2016-Aug-08 16:33N 37°12' E 122°58'1212.2
2016-Aug-08 15:33N 37°24' E 122°58'1411.3
2016-Aug-08 14:20N 37°37' E 122°53'911.5
2016-Aug-08 13:33N 37°42' E 122°43'1211.8
2016-Aug-08 12:31N 37°49' E 122°30'2512.8
2016-Aug-08 10:33N 38°01' E 122°02'1515.4
2016-Aug-08 09:33N 38°08' E 121°45'1514.5
2016-Aug-08 08:33N 38°16' E 121°30'1414.2
2016-Aug-08 07:33N 38°23' E 121°15'1313.4
2016-Aug-08 06:33N 38°30' E 120°60'1413.7
2016-Aug-08 05:33N 38°34' E 120°43'1514.2
2016-Aug-08 04:30N 38°36' E 120°24'11414.1
2016-Aug-07 20:26N 38°56' E 118°00'  

Dump ship's entire track history